Terminal Aerodrome Forecast
Issued by NWS

Home | Current Version | Previous Version | Text Only | Print | Product List | Glossary On
Versions: 1 2 3 4 5 6 7 8 9 10 11 12 13 14
000
FTUS45 KABQ 241139
TAFLVS
TAF
KLVS 241139Z 2412/2512 04007KT P6SM SCT150
     FM241700 14010KT P6SM SCT080 BKN150
     FM241900 18011KT P6SM VCSH BKN080
      TEMPO 2420/2422 VRB20G30KT 6SM -TSRA BKN080CB
     FM242200 26011G21KT P6SM VCSH BKN090
     FM250000 VRB15G25KT P6SM -SHRA VCTS BKN080CB
     FM250300 02007KT P6SM VCSH BKN090=

USA.gov is the U.S. government's official web portal to all federal, state and local government web resources and services.